createdAt,value
2022-11-15T00:00:21.374Z,12.09
2022-11-15T00:01:22.443Z,12.13
2022-11-15T00:02:21.439Z,12.06
2022-11-15T00:03:21.349Z,12.08
2022-11-15T00:04:21.345Z,12.02
2022-11-15T00:05:21.331Z,12.02
2022-11-15T00:06:21.349Z,12.02
2022-11-15T00:07:48.401Z,12.06
2022-11-15T00:08:23.305Z,12.12
2022-11-15T00:09:21.284Z,12.01
2022-11-15T00:10:21.279Z,12.15
2022-11-15T00:11:21.271Z,12.13
2022-11-15T00:12:21.256Z,12.06
2022-11-15T00:13:21.245Z,12.08
2022-11-15T00:14:21.239Z,12.09
2022-11-15T00:15:21.214Z,12.09
2022-11-15T00:16:21.243Z,12.06
2022-11-15T00:17:21.201Z,12.01
2022-11-15T00:18:21.193Z,12.01
2022-11-15T00:19:21.185Z,11.97
2022-11-15T00:20:21.173Z,11.94
2022-11-15T00:21:21.181Z,12.02
2022-11-15T00:22:21.155Z,11.97
2022-11-15T00:23:21.138Z,11.89
2022-11-15T00:24:21.133Z,11.97
2022-11-15T00:25:21.127Z,11.96
2022-11-15T00:26:21.106Z,12.04
2022-11-15T00:27:21.121Z,11.97
2022-11-15T00:28:21.087Z,12.06
2022-11-15T00:29:21.078Z,11.99
2022-11-15T00:30:21.071Z,11.93
2022-11-15T00:31:21.073Z,11.96
2022-11-15T00:32:21.041Z,11.99
2022-11-15T00:33:21.029Z,12.01
2022-11-15T00:34:21.038Z,11.93
2022-11-15T00:35:21.007Z,11.96
2022-11-15T00:36:21.037Z,12.04
2022-11-15T00:37:20.996Z,11.94
2022-11-15T00:38:20.977Z,12.05
2022-11-15T00:39:20.992Z,11.97
2022-11-15T00:40:20.970Z,11.93
2022-11-15T00:41:21.074Z,11.94
2022-11-15T00:42:20.951Z,12.06
2022-11-15T00:43:20.945Z,11.83
2022-11-15T00:44:20.928Z,11.96
2022-11-15T00:45:20.924Z,11.94
2022-11-15T00:46:20.926Z,11.87
2022-11-15T00:47:20.901Z,11.90
2022-11-15T00:48:20.915Z,11.93
2022-11-15T00:49:20.889Z,11.89
2022-11-15T00:50:20.870Z,11.97
2022-11-15T00:51:20.914Z,11.87
2022-11-15T00:52:20.846Z,11.89
2022-11-15T00:53:20.836Z,11.93
2022-11-15T00:54:20.831Z,11.96
2022-11-15T00:55:21.807Z,12.05
2022-11-15T00:56:20.828Z,11.96
2022-11-15T00:57:20.791Z,11.90
2022-11-15T00:58:20.786Z,11.86
2022-11-15T00:59:20.776Z,11.85
2022-11-15T01:00:20.763Z,11.87
2022-11-15T01:01:21.870Z,11.87
2022-11-15T01:02:20.753Z,11.97
2022-11-15T01:03:20.722Z,11.89
2022-11-15T01:04:20.726Z,11.97
2022-11-15T01:05:20.718Z,11.87
2022-11-15T01:06:20.721Z,11.87
2022-11-15T01:07:20.771Z,11.85
2022-11-15T01:08:20.680Z,11.93
2022-11-15T01:09:20.663Z,11.82
2022-11-15T01:10:20.663Z,11.89
2022-11-15T01:11:20.667Z,11.85
2022-11-15T01:12:20.641Z,11.93
2022-11-15T01:13:20.627Z,11.87
2022-11-15T01:14:25.193Z,11.80
2022-11-15T01:15:21.609Z,11.96
2022-11-15T01:16:20.618Z,11.89
2022-11-15T01:17:20.590Z,11.99
2022-11-15T01:18:20.575Z,11.96
2022-11-15T01:19:52.461Z,11.90
2022-11-15T01:20:20.559Z,11.97
2022-11-15T01:21:20.565Z,11.85
2022-11-15T01:22:20.541Z,11.94
2022-11-15T01:23:20.524Z,11.85
2022-11-15T01:24:20.526Z,11.86
2022-11-15T01:25:20.502Z,11.99
2022-11-15T01:26:20.511Z,11.97
2022-11-15T01:27:20.489Z,11.90
2022-11-15T01:28:20.482Z,11.93
2022-11-15T01:29:20.467Z,11.99
2022-11-15T01:30:20.447Z,12.02
2022-11-15T01:31:20.459Z,12.04
2022-11-15T01:32:20.437Z,12.04
2022-11-15T01:33:20.420Z,12.01
2022-11-15T01:34:20.414Z,12.05
2022-11-15T01:35:20.400Z,12.01
2022-11-15T01:36:20.406Z,12.02
2022-11-15T01:37:20.394Z,12.06
2022-11-15T01:38:20.377Z,12.02
2022-11-15T01:39:20.359Z,11.97
2022-11-15T01:40:20.351Z,12.04
2022-11-15T01:41:20.357Z,11.96
2022-11-15T01:42:20.330Z,12.06
2022-11-15T01:43:20.317Z,12.01
2022-11-15T01:44:20.311Z,12.01
2022-11-15T01:45:20.303Z,12.11
2022-11-15T01:46:20.313Z,11.99
2022-11-15T01:47:20.278Z,12.09
2022-11-15T01:48:20.266Z,11.96
2022-11-15T01:49:20.259Z,12.04
2022-11-15T01:50:20.250Z,12.09
2022-11-15T01:51:20.254Z,12.01
2022-11-15T01:52:20.237Z,12.04
2022-11-15T01:53:20.213Z,12.06
2022-11-15T01:54:20.202Z,12.04
2022-11-15T01:55:20.190Z,11.99
2022-11-15T01:56:20.209Z,12.02
2022-11-15T01:57:20.170Z,12.02
2022-11-15T01:58:20.158Z,12.09
2022-11-15T01:59:20.152Z,11.93
2022-11-15T02:00:20.144Z,12.02
2022-11-15T02:01:20.191Z,11.94
2022-11-15T02:02:20.135Z,11.97
2022-11-15T02:03:20.109Z,11.90
2022-11-15T02:04:20.097Z,11.89
2022-11-15T02:05:20.090Z,11.86
2022-11-15T02:06:20.077Z,11.78
2022-11-15T02:07:20.233Z,11.75
2022-11-15T02:08:20.054Z,11.68
2022-11-15T02:09:20.046Z,11.62
2022-11-15T02:10:20.039Z,11.53
2022-11-15T02:11:20.028Z,11.53
2022-11-15T02:12:20.032Z,11.44
2022-11-15T02:13:20.007Z,11.47
2022-11-15T02:14:19.992Z,11.46
2022-11-15T02:15:19.984Z,11.38
2022-11-15T02:16:19.982Z,11.41
2022-11-15T02:17:19.986Z,11.38
2022-11-15T02:18:19.945Z,11.38
2022-11-15T02:19:19.942Z,11.32
2022-11-15T02:20:19.977Z,11.29
2022-11-15T02:21:19.962Z,11.28
2022-11-15T02:22:19.931Z,11.28
2022-11-15T02:23:19.909Z,11.28
2022-11-15T02:24:19.901Z,11.21
2022-11-15T02:25:19.885Z,11.25
2022-11-15T02:26:19.863Z,11.25
2022-11-15T02:27:19.882Z,11.25
2022-11-15T02:28:19.854Z,11.21
2022-11-15T02:29:19.877Z,11.20
2022-11-15T02:30:19.831Z,11.21
2022-11-15T02:31:19.858Z,11.20
2022-11-15T02:32:19.837Z,11.16
2022-11-15T02:33:19.794Z,11.11
2022-11-15T02:34:19.794Z,11.14
2022-11-15T02:35:19.782Z,11.06
2022-11-15T02:36:19.769Z,11.02
2022-11-15T02:37:19.775Z,11.09
2022-11-15T02:38:19.749Z,11.06
2022-11-15T02:39:19.738Z,11.06
2022-11-15T02:40:19.731Z,11.06
2022-11-15T02:41:19.721Z,10.96
2022-11-15T02:42:19.731Z,11.07
2022-11-15T02:43:19.697Z,11.06
2022-11-15T02:44:19.690Z,11.19
2022-11-15T02:45:19.680Z,11.20
2022-11-15T02:46:19.694Z,11.20
2022-11-15T02:47:19.661Z,11.20
2022-11-15T02:48:19.647Z,11.19
2022-11-15T02:49:19.641Z,11.27
2022-11-15T02:50:19.632Z,11.32
2022-11-15T02:51:19.629Z,11.24
2022-11-15T02:52:19.606Z,11.31
2022-11-15T02:53:19.605Z,11.32
2022-11-15T02:54:19.595Z,11.38
2022-11-15T02:55:19.585Z,11.32
2022-11-15T02:56:19.593Z,11.38
2022-11-15T02:57:19.567Z,11.44
2022-11-15T02:58:19.555Z,11.43
2022-11-15T02:59:19.541Z,11.41
2022-11-15T03:00:19.528Z,11.41
2022-11-15T03:01:19.644Z,11.36
2022-11-15T03:02:19.515Z,11.56
2022-11-15T03:03:19.489Z,11.49
2022-11-15T03:04:20.489Z,11.50
2022-11-15T03:05:19.478Z,11.44
2022-11-15T03:06:19.496Z,11.52
2022-11-15T03:07:19.493Z,11.47
2022-11-15T03:08:19.455Z,11.49
2022-11-15T03:09:19.444Z,11.56
2022-11-15T03:10:19.431Z,11.53
2022-11-15T03:11:19.413Z,11.52
2022-11-15T03:12:19.431Z,11.59
2022-11-15T03:13:19.398Z,11.67
2022-11-15T03:14:19.389Z,11.57
2022-11-15T03:15:19.371Z,11.62
2022-11-15T03:16:19.366Z,11.54
2022-11-15T03:17:19.376Z,11.62
2022-11-15T03:18:19.348Z,11.61
2022-11-15T03:19:19.325Z,11.65
2022-11-15T03:20:19.324Z,11.59
2022-11-15T03:21:19.316Z,11.78
2022-11-15T03:22:19.324Z,11.62
2022-11-15T03:23:19.297Z,11.59
2022-11-15T03:24:24.699Z,11.71
2022-11-15T03:25:21.274Z,11.64
2022-11-15T03:26:19.262Z,11.61
2022-11-15T03:27:19.266Z,11.56
2022-11-15T03:28:19.244Z,11.62
2022-11-15T03:29:19.235Z,11.53
2022-11-15T03:30:19.226Z,11.54
2022-11-15T03:31:19.211Z,11.56
2022-11-15T03:32:19.218Z,11.57
2022-11-15T03:33:19.189Z,11.49
2022-11-15T03:34:19.182Z,11.57
2022-11-15T03:35:19.169Z,11.54
2022-11-15T03:36:19.166Z,11.57
2022-11-15T03:37:19.166Z,11.64
2022-11-15T03:38:19.178Z,11.59
2022-11-15T03:39:20.790Z,11.59
2022-11-15T03:40:19.111Z,11.61
2022-11-15T03:41:19.111Z,11.59
2022-11-15T03:42:19.123Z,11.59
2022-11-15T03:43:19.085Z,11.64
2022-11-15T03:44:19.074Z,11.50
2022-11-15T03:45:19.066Z,11.56
2022-11-15T03:46:19.057Z,11.52
2022-11-15T03:47:19.052Z,11.49
2022-11-15T03:48:19.037Z,11.50
2022-11-15T03:49:19.025Z,11.52
2022-11-15T03:50:19.013Z,11.46
2022-11-15T03:51:19.008Z,11.49
2022-11-15T03:52:19.015Z,11.43
2022-11-15T03:53:18.986Z,11.43
2022-11-15T03:54:18.990Z,11.34
2022-11-15T03:55:18.966Z,11.35
2022-11-15T03:56:18.957Z,11.43
2022-11-15T03:57:18.964Z,11.43
2022-11-15T03:58:18.933Z,11.35
2022-11-15T03:59:18.923Z,11.41
2022-11-15T04:00:18.923Z,11.43
2022-11-15T04:01:18.954Z,11.34
2022-11-15T04:02:18.922Z,11.28
2022-11-15T04:03:18.880Z,11.35
2022-11-15T04:04:18.869Z,11.25
2022-11-15T04:05:18.862Z,11.16
2022-11-15T04:06:18.873Z,11.21
2022-11-15T04:07:18.867Z,11.19
2022-11-15T04:08:18.828Z,11.17
2022-11-15T04:09:18.822Z,11.19
2022-11-15T04:10:18.816Z,11.13
2022-11-15T04:11:18.811Z,11.31
2022-11-15T04:12:18.817Z,11.21
2022-11-15T04:13:18.787Z,11.21
2022-11-15T04:14:18.768Z,11.25
2022-11-15T04:15:18.759Z,11.25
2022-11-15T04:16:18.744Z,11.19
2022-11-15T04:17:18.761Z,11.17
2022-11-15T04:18:18.735Z,11.20
2022-11-15T04:19:18.711Z,11.19
2022-11-15T04:20:18.709Z,11.21
2022-11-15T04:21:18.734Z,11.13
2022-11-15T04:22:18.703Z,11.10
2022-11-15T04:23:18.679Z,11.11
2022-11-15T04:24:18.672Z,11.14
2022-11-15T04:25:23.163Z,11.16
2022-11-15T04:26:20.641Z,11.19
2022-11-15T04:27:18.758Z,11.14
2022-11-15T04:28:18.631Z,11.17
2022-11-15T04:29:18.624Z,11.13
2022-11-15T04:30:18.601Z,11.14
2022-11-15T04:31:18.600Z,11.10
2022-11-15T04:32:18.612Z,11.13
2022-11-15T04:33:18.580Z,11.16
2022-11-15T04:34:18.572Z,11.20
2022-11-15T04:35:18.561Z,11.11
2022-11-15T04:36:18.545Z,11.16
2022-11-15T04:37:18.559Z,11.21
2022-11-15T04:38:18.526Z,11.17
2022-11-15T04:39:18.511Z,11.21
2022-11-15T04:40:18.509Z,11.14
2022-11-15T04:41:18.502Z,11.11
2022-11-15T04:42:18.511Z,11.16
2022-11-15T04:43:18.469Z,11.13
2022-11-15T04:44:19.463Z,11.20
2022-11-15T04:45:18.464Z,11.19
2022-11-15T04:46:18.446Z,11.14
2022-11-15T04:47:18.463Z,11.21
2022-11-15T04:48:18.431Z,11.19
2022-11-15T04:49:18.445Z,11.25
2022-11-15T04:50:18.415Z,11.20
2022-11-15T04:51:18.411Z,11.20
2022-11-15T04:52:18.416Z,11.17
2022-11-15T04:53:18.386Z,11.16
2022-11-15T04:54:18.375Z,11.16
2022-11-15T04:55:18.362Z,11.13
2022-11-15T04:56:18.352Z,11.19
2022-11-15T04:57:18.359Z,11.13
2022-11-15T04:58:18.330Z,11.01
2022-11-15T04:59:18.320Z,11.10
2022-11-15T05:00:18.306Z,11.02
2022-11-15T05:01:18.343Z,11.01
2022-11-15T05:02:18.301Z,10.98
2022-11-15T05:03:18.271Z,11.06
2022-11-15T05:04:18.266Z,11.14
2022-11-15T05:05:18.256Z,11.06
2022-11-15T05:06:18.248Z,11.11
2022-11-15T05:07:18.331Z,11.10
2022-11-15T05:08:18.228Z,11.10
2022-11-15T05:09:18.216Z,11.13
2022-11-15T05:10:18.213Z,11.13
2022-11-15T05:11:18.187Z,11.16
2022-11-15T05:12:18.202Z,11.24
2022-11-15T05:13:18.174Z,11.13
2022-11-15T05:14:18.161Z,11.13
2022-11-15T05:15:18.155Z,11.10
2022-11-15T05:16:18.139Z,11.11
2022-11-15T05:17:18.150Z,11.14
2022-11-15T05:18:23.104Z,11.11
2022-11-15T05:19:18.108Z,11.17
2022-11-15T05:20:18.102Z,11.16
2022-11-15T05:21:18.091Z,11.07
2022-11-15T05:22:18.086Z,11.16
2022-11-15T05:23:18.073Z,11.16
2022-11-15T05:24:18.056Z,11.13
2022-11-15T05:25:18.049Z,11.03
2022-11-15T05:26:18.040Z,11.16
2022-11-15T05:27:18.049Z,10.99
2022-11-15T05:28:18.016Z,10.99
2022-11-15T05:29:18.003Z,11.09
2022-11-15T05:30:17.995Z,11.03
2022-11-15T05:31:17.988Z,10.98
2022-11-15T05:32:17.992Z,11.06
2022-11-15T05:33:17.967Z,11.09
2022-11-15T05:34:17.950Z,11.03
2022-11-15T05:35:17.950Z,11.06
2022-11-15T05:36:17.936Z,11.01
2022-11-15T05:37:17.954Z,11.07
2022-11-15T05:38:17.904Z,11.07
2022-11-15T05:39:17.907Z,11.02
2022-11-15T05:40:17.886Z,11.09
2022-11-15T05:41:17.889Z,11.07
2022-11-15T05:42:17.892Z,11.02
2022-11-15T05:43:17.860Z,10.99
2022-11-15T05:44:17.857Z,11.02
2022-11-15T05:45:21.324Z,11.09
2022-11-15T05:46:18.829Z,11.06
2022-11-15T05:47:17.851Z,10.96
2022-11-15T05:48:17.820Z,11.03
2022-11-15T05:49:17.812Z,10.94
2022-11-15T05:50:17.795Z,11.10
2022-11-15T05:51:17.781Z,11.06
2022-11-15T05:52:17.791Z,11.10
2022-11-15T05:53:17.760Z,11.10
2022-11-15T05:54:17.756Z,11.09
2022-11-15T05:55:17.748Z,10.98
2022-11-15T05:56:17.739Z,11.01
2022-11-15T05:57:17.745Z,11.06
2022-11-15T05:58:17.707Z,11.03
2022-11-15T05:59:17.701Z,11.06
2022-11-15T06:00:17.699Z,11.02
2022-11-15T06:01:17.706Z,11.06
2022-11-15T06:02:17.719Z,11.07
2022-11-15T06:03:17.656Z,11.06
2022-11-15T06:04:17.660Z,11.06
2022-11-15T06:05:17.651Z,11.01
2022-11-15T06:06:17.621Z,10.99
2022-11-15T06:07:17.829Z,11.02
2022-11-15T06:08:17.625Z,11.09
2022-11-15T06:09:17.614Z,11.01
2022-11-15T06:10:17.585Z,11.09
2022-11-15T06:11:17.576Z,11.13
2022-11-15T06:12:17.583Z,11.09
2022-11-15T06:13:17.557Z,11.03
2022-11-15T06:14:17.539Z,11.11
2022-11-15T06:15:17.588Z,11.01
2022-11-15T06:16:17.527Z,11.14
2022-11-15T06:17:17.541Z,11.11
2022-11-15T06:18:17.514Z,11.13
2022-11-15T06:19:17.502Z,11.13
2022-11-15T06:20:17.486Z,11.09
2022-11-15T06:21:17.486Z,11.06
2022-11-15T06:22:17.488Z,11.06
2022-11-15T06:23:17.526Z,11.10
2022-11-15T06:24:17.449Z,11.09
2022-11-15T06:25:17.439Z,10.96
2022-11-15T06:26:17.418Z,10.96
2022-11-15T06:27:17.441Z,11.06
2022-11-15T06:28:17.402Z,10.99
2022-11-15T06:29:18.406Z,11.01
2022-11-15T06:30:17.389Z,11.09
2022-11-15T06:31:17.386Z,10.99
2022-11-15T06:32:17.547Z,10.94
2022-11-15T06:33:17.357Z,10.94
2022-11-15T06:34:17.336Z,10.94
2022-11-15T06:35:17.343Z,10.92
2022-11-15T06:36:17.987Z,10.92
2022-11-15T06:37:18.341Z,10.80
2022-11-15T06:38:17.299Z,10.80
2022-11-15T06:39:17.307Z,10.88
2022-11-15T06:40:17.305Z,10.84
2022-11-15T06:41:17.281Z,10.78
2022-11-15T06:42:17.283Z,10.83
2022-11-15T06:43:17.261Z,10.74
2022-11-15T06:44:17.249Z,10.76
2022-11-15T06:45:17.259Z,10.80
2022-11-15T06:46:17.222Z,10.74
2022-11-15T06:47:17.248Z,10.70
2022-11-15T06:48:17.206Z,10.68
2022-11-15T06:49:17.201Z,10.63
2022-11-15T06:50:17.180Z,10.74
2022-11-15T06:51:17.182Z,10.62
2022-11-15T06:52:17.188Z,10.73
2022-11-15T06:53:17.160Z,10.71
2022-11-15T06:54:17.146Z,10.70
2022-11-15T06:55:17.141Z,10.62
2022-11-15T06:56:17.135Z,10.68
2022-11-15T06:57:17.143Z,10.63
2022-11-15T06:58:17.111Z,10.66
2022-11-15T06:59:17.094Z,10.58
2022-11-15T07:00:17.098Z,10.53
2022-11-15T07:01:17.110Z,10.63
2022-11-15T07:02:17.094Z,10.59
2022-11-15T07:03:17.071Z,10.58
2022-11-15T07:04:17.054Z,10.51
2022-11-15T07:05:17.049Z,10.60
2022-11-15T07:06:17.038Z,10.62
2022-11-15T07:07:17.068Z,10.58
2022-11-15T07:08:17.018Z,10.58
2022-11-15T07:09:17.006Z,10.56
2022-11-15T07:10:17.003Z,10.58
2022-11-15T07:11:17.002Z,10.53
2022-11-15T07:12:17.006Z,10.58
2022-11-15T07:13:16.975Z,10.58
2022-11-15T07:14:16.960Z,10.63
2022-11-15T07:15:16.936Z,10.62
2022-11-15T07:16:16.951Z,10.66
2022-11-15T07:17:16.950Z,10.70
2022-11-15T07:18:16.921Z,10.60
2022-11-15T07:20:49.294Z,10.74
2022-11-15T07:21:16.889Z,10.65
2022-11-15T07:22:16.894Z,10.74
2022-11-15T07:23:16.877Z,10.74
2022-11-15T07:24:16.859Z,10.74
2022-11-15T07:25:16.838Z,10.65
2022-11-15T07:26:16.833Z,10.65
2022-11-15T07:27:16.848Z,10.70
2022-11-15T07:28:16.814Z,10.77
2022-11-15T07:29:16.806Z,10.78
2022-11-15T07:30:16.830Z,10.68
2022-11-15T07:31:17.784Z,10.76
2022-11-15T07:32:16.796Z,10.76
2022-11-15T07:33:16.770Z,10.83
2022-11-15T07:34:16.761Z,10.77
2022-11-15T07:35:16.734Z,10.71
2022-11-15T07:36:16.745Z,10.71
2022-11-15T07:37:16.750Z,10.80
2022-11-15T07:38:16.715Z,10.77
2022-11-15T07:39:16.706Z,10.78
2022-11-15T07:40:16.700Z,10.84
2022-11-15T07:41:16.687Z,10.78
2022-11-15T07:42:16.704Z,10.80
2022-11-15T07:43:16.665Z,10.76
2022-11-15T07:44:16.654Z,10.71
2022-11-15T07:45:16.647Z,10.76
2022-11-15T07:46:16.628Z,10.86
2022-11-15T07:47:16.648Z,10.80
2022-11-15T07:48:16.613Z,10.78
2022-11-15T07:49:16.615Z,10.77
2022-11-15T07:50:16.598Z,10.74
2022-11-15T07:51:16.577Z,10.77
2022-11-15T07:52:16.575Z,10.92
2022-11-15T07:53:16.566Z,10.81
2022-11-15T07:54:16.589Z,10.89
2022-11-15T07:55:16.539Z,10.84
2022-11-15T07:56:16.534Z,10.94
2022-11-15T07:57:16.528Z,11.02
2022-11-15T07:58:16.520Z,10.94
2022-11-15T07:59:16.535Z,11.06
2022-11-15T08:00:16.505Z,11.01
2022-11-15T08:01:17.583Z,11.10
2022-11-15T08:02:16.560Z,11.09
2022-11-15T08:03:16.462Z,11.16
2022-11-15T08:04:16.483Z,11.16
2022-11-15T08:05:16.450Z,11.20
2022-11-15T08:06:16.440Z,11.10
2022-11-15T08:07:16.519Z,11.20
2022-11-15T08:08:16.415Z,11.24
2022-11-15T08:09:16.411Z,11.28
2022-11-15T08:10:16.421Z,11.32
2022-11-15T08:11:16.374Z,11.34
2022-11-15T08:12:16.370Z,11.35
2022-11-15T08:13:16.441Z,11.36
2022-11-15T08:14:16.381Z,11.52
2022-11-15T08:15:16.350Z,11.50
2022-11-15T08:16:16.340Z,11.68
2022-11-15T08:17:16.323Z,11.57
2022-11-15T08:18:16.326Z,11.68
2022-11-15T08:19:16.309Z,11.64
2022-11-15T08:20:16.314Z,11.78
2022-11-15T08:21:18.421Z,11.74
2022-11-15T08:22:17.271Z,11.78
2022-11-15T08:23:16.269Z,11.80
2022-11-15T08:24:16.275Z,11.87
2022-11-15T08:25:16.242Z,11.89
2022-11-15T08:26:16.231Z,11.85
2022-11-15T08:27:16.281Z,11.78
2022-11-15T08:28:16.229Z,11.86
2022-11-15T08:29:16.203Z,11.85
2022-11-15T08:30:16.216Z,11.80
2022-11-15T08:31:16.189Z,11.71
2022-11-15T08:32:16.173Z,11.75
2022-11-15T08:33:16.160Z,11.87
2022-11-15T08:34:16.190Z,11.89
2022-11-15T08:35:16.161Z,11.89
2022-11-15T08:36:16.133Z,12.02
2022-11-15T08:37:17.018Z,11.99
2022-11-15T08:38:16.107Z,11.97
2022-11-15T08:39:16.095Z,12.06
2022-11-15T08:40:16.114Z,12.13
2022-11-15T08:41:16.075Z,12.08
2022-11-15T08:42:19.762Z,12.11
2022-11-15T08:43:17.050Z,12.15
2022-11-15T08:44:16.048Z,12.13
2022-11-15T08:45:16.050Z,12.23
2022-11-15T08:46:16.026Z,12.30
2022-11-15T08:47:16.020Z,12.20
2022-11-15T08:48:16.010Z,12.15
2022-11-15T08:49:15.985Z,12.27
2022-11-15T08:50:17.006Z,12.31
2022-11-15T08:51:15.960Z,12.37
2022-11-15T08:52:15.972Z,12.37
2022-11-15T08:53:15.952Z,12.41
2022-11-15T08:54:15.938Z,12.51
2022-11-15T08:55:17.538Z,12.39
2022-11-15T08:56:15.918Z,12.48
2022-11-15T08:57:15.907Z,12.54
2022-11-15T08:58:15.937Z,12.44
2022-11-15T08:59:15.879Z,12.49
2022-11-15T09:00:15.889Z,12.54
2022-11-15T09:01:18.374Z,12.54
2022-11-15T09:02:16.857Z,12.56
2022-11-15T09:03:15.852Z,12.51
2022-11-15T09:04:15.905Z,12.52
2022-11-15T09:05:15.899Z,12.60
2022-11-15T09:06:15.865Z,12.59
2022-11-15T09:07:15.865Z,12.54
2022-11-15T09:08:40.765Z,12.52
2022-11-15T09:09:17.799Z,12.63
2022-11-15T09:10:15.825Z,12.54
2022-11-15T09:11:15.823Z,12.56
2022-11-15T09:12:15.754Z,12.49
2022-11-15T09:13:15.750Z,12.52
2022-11-15T09:14:15.737Z,12.49
2022-11-15T09:15:15.744Z,12.52
2022-11-15T09:16:15.719Z,12.56
2022-11-15T09:17:19.140Z,12.60
2022-11-15T09:18:16.702Z,12.52
2022-11-15T09:19:15.681Z,12.70
2022-11-15T09:20:15.681Z,12.70
2022-11-15T09:21:15.662Z,12.78
2022-11-15T09:22:15.649Z,12.85
2022-11-15T09:23:15.639Z,12.81
2022-11-15T09:24:15.633Z,12.92
2022-11-15T09:25:15.638Z,12.95
2022-11-15T09:26:15.647Z,13.02
2022-11-15T09:27:16.536Z,13.03
2022-11-15T09:28:15.640Z,13.06
2022-11-15T09:29:15.615Z,13.02
2022-11-15T09:30:16.050Z,13.12
2022-11-15T09:31:20.951Z,13.11
2022-11-15T09:32:16.611Z,13.04
2022-11-15T09:33:15.593Z,13.03
2022-11-15T09:34:15.645Z,13.15
2022-11-15T09:35:15.645Z,13.29
2022-11-15T09:36:15.502Z,13.20
2022-11-15T09:37:15.491Z,13.27
2022-11-15T09:38:15.496Z,13.21
2022-11-15T09:39:15.666Z,13.33
2022-11-15T09:40:15.603Z,13.29
2022-11-15T09:41:15.544Z,13.37
2022-11-15T09:42:15.444Z,13.33
2022-11-15T09:43:15.434Z,13.32
2022-11-15T09:44:15.436Z,13.25
2022-11-15T09:45:15.434Z,13.43
2022-11-15T09:46:15.419Z,13.41
2022-11-15T09:47:15.395Z,13.46
2022-11-15T09:48:15.384Z,13.38
2022-11-15T09:49:15.379Z,13.40
2022-11-15T09:50:15.379Z,13.46
2022-11-15T09:51:15.345Z,13.37
2022-11-15T09:52:15.346Z,13.44
2022-11-15T09:53:15.330Z,13.51
2022-11-15T09:55:17.319Z,13.69
2022-11-15T09:56:15.310Z,13.52
2022-11-15T09:57:16.432Z,13.52
2022-11-15T09:58:16.300Z,13.52
2022-11-15T09:59:15.263Z,13.56
2022-11-15T10:00:44.886Z,13.40
2022-11-15T10:01:17.282Z,13.61
2022-11-15T10:02:15.239Z,13.54
2022-11-15T10:03:15.222Z,13.54
2022-11-15T10:04:15.240Z,13.54
2022-11-15T10:05:15.234Z,13.52
2022-11-15T10:06:15.200Z,13.49
2022-11-15T10:07:15.195Z,13.63
2022-11-15T10:08:15.192Z,13.54
2022-11-15T10:09:15.177Z,13.62
2022-11-15T10:10:15.176Z,13.62
2022-11-15T10:11:37.286Z,13.65
2022-11-15T10:12:17.146Z,13.59
2022-11-15T10:13:15.130Z,13.63
2022-11-15T10:14:15.159Z,13.76
2022-11-15T10:15:15.121Z,13.70
2022-11-15T10:16:15.105Z,13.77
2022-11-15T10:17:15.094Z,13.81
2022-11-15T10:18:15.088Z,13.92
2022-11-15T10:19:15.075Z,13.91
2022-11-15T10:20:15.080Z,13.99
2022-11-15T10:21:15.057Z,13.81
2022-11-15T10:22:15.064Z,13.80
2022-11-15T10:23:15.081Z,13.92
2022-11-15T10:24:15.049Z,13.96
2022-11-15T10:25:15.046Z,13.96
2022-11-15T10:26:15.046Z,13.94
2022-11-15T10:27:15.076Z,13.98
2022-11-15T10:28:15.022Z,14.06
2022-11-15T10:29:15.025Z,14.10
2022-11-15T10:30:15.016Z,14.07
2022-11-15T10:31:15.550Z,14.12
2022-11-15T10:32:14.960Z,14.16
2022-11-15T10:33:14.933Z,14.19
2022-11-15T10:34:14.929Z,14.21
2022-11-15T10:35:14.937Z,14.14
2022-11-15T10:36:14.907Z,14.24
2022-11-15T10:37:14.904Z,14.24
2022-11-15T10:38:14.885Z,14.29
2022-11-15T10:39:14.914Z,14.34
2022-11-15T10:40:14.901Z,14.19
2022-11-15T10:41:14.856Z,14.28
2022-11-15T10:42:17.757Z,14.35
2022-11-15T10:43:14.843Z,14.43
2022-11-15T10:44:14.825Z,14.53
2022-11-15T10:45:14.848Z,14.50
2022-11-15T10:46:44.590Z,14.61
2022-11-15T10:47:17.824Z,14.49
2022-11-15T10:48:14.833Z,14.54
2022-11-15T10:49:14.856Z,14.47
2022-11-15T10:50:15.432Z,14.43
2022-11-15T10:51:14.846Z,14.47
2022-11-15T10:52:14.850Z,14.49
2022-11-15T10:53:14.857Z,14.50
2022-11-15T10:54:18.440Z,14.37
2022-11-15T10:55:15.732Z,14.34
2022-11-15T10:56:14.702Z,14.42
2022-11-15T10:57:15.713Z,14.27
2022-11-15T10:58:14.679Z,14.35
2022-11-15T10:59:14.680Z,14.25
2022-11-15T11:00:14.683Z,14.12
2022-11-15T11:01:14.764Z,14.14
2022-11-15T11:02:14.688Z,14.27
2022-11-15T11:03:14.640Z,14.14
2022-11-15T11:04:14.625Z,14.14
2022-11-15T11:05:14.647Z,14.13
2022-11-15T11:06:14.602Z,14.06
2022-11-15T11:07:14.621Z,13.99
2022-11-15T11:08:14.591Z,13.98
2022-11-15T11:09:14.579Z,13.98
2022-11-15T11:10:44.144Z,13.95
2022-11-15T11:11:16.556Z,14.12
2022-11-15T11:12:14.554Z,13.99
2022-11-15T11:13:14.537Z,14.01
2022-11-15T11:14:14.655Z,14.01
2022-11-15T11:15:14.527Z,13.98
2022-11-15T11:16:14.517Z,14.01
2022-11-15T11:17:14.504Z,14.01
2022-11-15T11:18:14.492Z,13.96
2022-11-15T11:19:14.612Z,14.06
2022-11-15T11:20:14.490Z,14.14
2022-11-15T11:21:14.462Z,14.17
2022-11-15T11:22:14.456Z,14.20
2022-11-15T11:23:14.440Z,14.29
2022-11-15T11:24:14.435Z,14.34
2022-11-15T11:25:14.449Z,14.19
2022-11-15T11:26:14.415Z,14.28
2022-11-15T11:27:14.406Z,14.31
2022-11-15T11:28:14.402Z,14.29
2022-11-15T11:29:14.392Z,14.28
2022-11-15T11:30:14.446Z,14.42
2022-11-15T11:31:14.389Z,14.35
2022-11-15T11:32:14.357Z,14.38
2022-11-15T11:33:14.339Z,14.39
2022-11-15T11:34:14.331Z,14.32
2022-11-15T11:35:14.323Z,14.34
2022-11-15T11:36:14.331Z,14.44
2022-11-15T11:37:14.299Z,14.47
2022-11-15T11:38:16.365Z,14.44
2022-11-15T11:39:15.267Z,14.53
2022-11-15T11:40:14.276Z,14.62
2022-11-15T11:41:14.296Z,14.61
2022-11-15T11:42:14.248Z,14.60
2022-11-15T11:43:14.283Z,14.52
2022-11-15T11:44:14.230Z,14.56
2022-11-15T11:45:14.213Z,14.53
2022-11-15T11:46:14.224Z,14.47
2022-11-15T11:47:14.201Z,14.53
2022-11-15T11:48:14.193Z,14.54
2022-11-15T11:49:14.183Z,14.56
2022-11-15T11:50:14.289Z,14.53
2022-11-15T11:51:14.172Z,14.53
2022-11-15T11:52:14.150Z,14.54
2022-11-15T11:53:14.141Z,14.61
2022-11-15T11:54:14.134Z,14.64
2022-11-15T11:55:14.119Z,14.64
2022-11-15T11:56:14.129Z,14.57
2022-11-15T11:57:14.105Z,14.72
2022-11-15T11:58:14.091Z,14.71
2022-11-15T11:59:14.073Z,14.61
2022-11-15T12:00:14.187Z,14.69
2022-11-15T12:01:14.081Z,14.67
2022-11-15T12:02:14.190Z,14.75
2022-11-15T12:03:14.232Z,14.81
2022-11-15T12:04:14.029Z,14.86
2022-11-15T12:05:14.015Z,14.78
2022-11-15T12:06:14.028Z,14.80
2022-11-15T12:07:14.066Z,14.75
2022-11-15T12:08:13.990Z,14.86
2022-11-15T12:09:13.980Z,14.83
2022-11-15T12:10:13.970Z,14.90
2022-11-15T12:11:13.974Z,14.88
2022-11-15T12:12:13.952Z,14.91
2022-11-15T12:13:13.940Z,14.98
2022-11-15T12:14:13.933Z,14.93
2022-11-15T12:15:13.912Z,14.86
2022-11-15T12:16:13.930Z,14.95
2022-11-15T12:17:13.906Z,15.11
2022-11-15T12:18:13.890Z,14.98
2022-11-15T12:19:13.872Z,14.99
2022-11-15T12:20:13.875Z,15.03
2022-11-15T12:21:14.502Z,14.93
2022-11-15T12:22:13.846Z,15.05
2022-11-15T12:23:13.835Z,15.05
2022-11-15T12:24:13.853Z,15.03
2022-11-15T12:25:13.817Z,14.99
2022-11-15T12:26:13.836Z,14.94
2022-11-15T12:27:13.802Z,14.99
2022-11-15T12:28:13.790Z,15.06
2022-11-15T12:29:13.780Z,14.99
2022-11-15T12:30:13.774Z,15.03
2022-11-15T12:31:13.766Z,14.99
2022-11-15T12:32:13.743Z,14.95
2022-11-15T12:33:13.737Z,14.94
2022-11-15T12:34:13.730Z,14.87
2022-11-15T12:35:13.705Z,14.75
2022-11-15T12:36:13.744Z,14.80
2022-11-15T12:37:13.701Z,14.78
2022-11-15T12:38:13.690Z,14.78
2022-11-15T12:39:13.666Z,14.74
2022-11-15T12:40:13.667Z,14.61
2022-11-15T12:41:13.675Z,14.61
2022-11-15T12:42:13.652Z,14.60
2022-11-15T12:43:13.635Z,14.62
2022-11-15T12:44:13.694Z,14.65
2022-11-15T12:45:13.619Z,14.81
2022-11-15T12:46:13.630Z,14.81
2022-11-15T12:47:13.600Z,14.87
2022-11-15T12:48:13.598Z,14.86
2022-11-15T12:49:13.577Z,14.86
2022-11-15T12:50:13.572Z,14.88
2022-11-15T12:51:13.578Z,14.81
2022-11-15T12:52:13.554Z,14.72
2022-11-15T12:53:13.542Z,14.80
2022-11-15T12:54:13.529Z,14.74